Gunnedah Scs, Australia

5:25 PM AEDT on December 11, 2016 (GMT +1100)
Bengalala | | Change Station

Elev 880 ft 30.88 °S, 150.25 °E | Updated 4 minutes ago

Partly Cloudy
Partly Cloudy
90.2 °F
Feels Like 87 °F
N
2.0
Wind Variable Wind from North
Gusts 6.0 mph

Today
High -- | Low -- °F
--% Chance of Precip.
Yesterday
High -- | Low -- °F
Precip. -- in
Pressure 30.04 in
Visibility 6.2 miles
Clouds Mostly Cloudy 7700 ft
Heat Index 87 °F
Dew Point 50 °F
Humidity 25%
Rainfall 0.00 in
Snow Depth Not available.
5:48 AM 7:56 PM
Waxing Gibbous, 89% visible
METAR YSTW 110600Z AUTO 17005KT 090V230 9999 // BKN077 31/10 Q1017
Pressure 30.04 in
Visibility 6.2 miles
Clouds Mostly Cloudy 7700 ft
Heat Index 87 °F
Dew Point 50 °F
Humidity 25%
Rainfall 0.00 in
Snow Depth Not available.
5:48 AM 7:56 PM
Waxing Gibbous, 89% visible
METAR YSTW 110600Z AUTO 17005KT 090V230 9999 // BKN077 31/10 Q1017

10-Day Weather Forecast

×

Almanac

Astronomy

Dec. 11, 2016 Rise Set
Actual Time
Civil Twilight
Nautical Twilight
Astronomical Twilight
Moon
Length of Visible Light
Length of Day
Tomorrow will be .
, % of the Moon is Illuminated

Today's Extremes

Country Highs Country Lows

Community

WunderPhotos

Upload Photos

1,956,707 photos uploaded!

WunderBlog® & News

Nearby

Air Quality

  Air Quality AQ Index Pollutant
Not available.

Snow Depth

Station Depth Elevation

Earthquake Activity

City Distance Mag. Time & Date
Minimum magnitude displayed is 2.5.

Coastal Water Temperatures

Place Temperature

Stations

Nearby Weather Stations

Station Location Temp. Windchill Dew Point Humidity Wind Precip. Elev Updated Type